Time;durP1;ratioP1;P1;durP2;ratioP2;P2;SDS_P1;SDS_P2;PMS_P1;PMS_P2;Temp;Humidity;BMP_temperature;BMP_pressure;BME280_temperature;BME280_humidity;BME280_pressure;Samples;Min_cycle;Max_cycle;Signal;HPM_P1;HPM_P2
2023/08/17 07:24:53;;;;;;;42.00;5.20;;;21.40;99.90;;;;;;5121237;23;20067;-71
2023/08/17 07:27:18;;;;;;;9.20;4.28;;;21.50;99.90;;;;;;4944998;29;20032;-66
2023/08/17 07:29:44;;;;;;;6.72;4.05;;;21.60;99.90;;;;;;4937017;29;20031;-66
2023/08/17 07:32:09;;;;;;;6.65;4.22;;;21.70;99.90;;;;;;4936808;29;20039;-65
2023/08/17 07:34:36;;;;;;;10.57;4.07;;;21.70;99.90;;;;;;4932521;29;20036;-66
2023/08/17 07:37:03;;;;;;;6.60;4.50;;;21.70;99.90;;;;;;4918444;29;20040;-65
2023/08/17 07:39:29;;;;;;;9.80;4.00;;;21.90;99.90;;;;;;4917819;29;20056;-65
2023/08/17 07:41:54;;;;;;;9.88;4.97;;;22.00;99.90;;;;;;4917438;29;20143;-65
2023/08/17 07:44:20;;;;;;;9.18;4.53;;;22.10;99.90;;;;;;4917429;29;20152;-65
2023/08/17 07:46:45;;;;;;;6.72;3.97;;;22.10;99.90;;;;;;4917940;29;20426;-65
2023/08/17 07:49:11;;;;;;;6.47;4.05;;;22.20;99.90;;;;;;4916154;29;20032;-65
2023/08/17 07:51:37;;;;;;;8.20;4.00;;;22.10;99.90;;;;;;4918491;29;20024;-66
2023/08/17 07:54:02;;;;;;;6.18;4.47;;;22.20;99.90;;;;;;4918845;29;20035;-66
2023/08/17 07:56:28;;;;;;;7.65;3.97;;;22.10;99.90;;;;;;4922607;29;20174;-66
2023/08/17 07:58:54;;;;;;;;;;;22.20;99.90;;;;;;4938516;29;20039;-66
2023/08/17 08:01:19;;;;;;;8.95;4.95;;;22.30;99.90;;;;;;4937935;29;20005;-65
2023/08/17 08:03:45;;;;;;;5.32;4.18;;;22.20;99.90;;;;;;4938428;29;20035;-66
2023/08/17 08:06:10;;;;;;;6.43;4.40;;;22.30;99.90;;;;;;4938991;29;20036;-66
2023/08/17 08:08:36;;;;;;;;;;;22.40;99.90;;;;;;4938471;29;20067;-66
2023/08/17 08:11:04;;;;;;;8.45;5.25;;;22.50;99.90;;;;;;4938800;29;19914;-65
2023/08/17 08:13:30;;;;;;;6.55;4.63;;;22.40;99.90;;;;;;4938565;29;20031;-66
2023/08/17 08:15:55;;;;;;;7.70;4.40;;;22.40;99.90;;;;;;4939039;29;20035;-66
2023/08/17 08:18:21;;;;;;;;;;;22.50;99.90;;;;;;4939672;29;20044;-66
2023/08/17 08:20:46;;;;;;;8.90;4.80;;;22.70;99.90;;;;;;4937871;29;19918;-67
2023/08/17 08:23:11;;;;;;;8.43;5.80;;;22.80;99.90;;;;;;4937815;29;20028;-66
2023/08/17 08:25:37;;;;;;;7.30;5.97;;;22.70;99.90;;;;;;4937712;29;20111;-65
2023/08/17 08:28:03;;;;;;;10.88;6.20;;;22.70;99.90;;;;;;4937043;29;20024;-65
2023/08/17 08:30:28;;;;;;;;;;;22.80;99.90;;;;;;4937886;29;20031;-65
2023/08/17 08:32:57;;;;;;;8.88;5.28;;;22.80;99.90;;;;;;4936541;29;19906;-67
2023/08/17 08:35:24;;;;;;;5.88;4.82;;;22.90;99.90;;;;;;4937794;29;20051;-67
2023/08/17 08:37:50;;;;;;;7.85;5.47;;;23.00;99.90;;;;;;4937431;29;20028;-66
2023/08/17 08:40:16;;;;;;;;;;;23.00;99.90;;;;;;4920187;29;20043;-64
2023/08/17 08:42:42;;;;;;;10.77;6.80;;;22.90;99.90;;;;;;4936200;29;19940;-66
2023/08/17 08:45:07;;;;;;;;;;;23.00;99.90;;;;;;4936794;29;20142;-66
2023/08/17 08:47:36;;;;;;;7.55;6.75;;;23.20;99.90;;;;;;4936405;29;19906;-66
2023/08/17 08:50:04;;;;;;;9.27;6.05;;;23.30;99.90;;;;;;4936349;29;20034;-65
2023/08/17 08:52:40;;;;;;;8.52;6.43;;;23.40;99.90;;;;;;4936663;29;20082;-66
2023/08/17 08:55:17;;;;;;;7.30;5.40;;;23.50;99.90;;;;;;4935978;29;20093;-66
2023/08/17 08:57:43;;;;;;;10.38;6.32;;;23.40;99.90;;;;;;4934796;29;20055;-67
2023/08/17 09:00:11;;;;;;;10.05;6.65;;;23.40;99.90;;;;;;4918833;29;20032;-66
2023/08/17 09:02:37;;;;;;;9.27;5.50;;;23.50;99.90;;;;;;4936222;29;20044;-65
2023/08/17 09:05:06;;;;;;;7.47;5.65;;;23.60;99.90;;;;;;4935963;29;20024;-65
2023/08/17 09:07:33;;;;;;;7.75;5.30;;;23.80;99.90;;;;;;4918869;29;20111;-65
2023/08/17 09:09:58;;;;;;;8.00;5.70;;;23.80;99.90;;;;;;4935646;29;20032;-66
2023/08/17 09:12:24;;;;;;;;;;;24.00;99.90;;;;;;4935531;29;20035;-69
2023/08/17 09:14:50;;;;;;;8.00;5.72;;;24.30;99.90;;;;;;4935187;29;19913;-69
2023/08/17 09:17:24;;;;;;;7.78;5.03;;;24.60;99.90;;;;;;4935886;29;20034;-69
2023/08/17 09:19:49;;;;;;;6.45;5.00;;;24.80;99.90;;;;;;4935553;29;20086;-68
2023/08/17 09:22:21;;;;;;;;;;;25.00;99.90;;;;;;4936211;29;20422;-68
2023/08/17 09:24:47;;;;;;;7.28;5.10;;;24.90;99.90;;;;;;4935526;29;19914;-68
2023/08/17 09:27:13;;;;;;;;;;;25.10;99.90;;;;;;4939068;29;20435;-68
2023/08/17 09:29:45;;;;;;;6.68;4.82;;;25.60;99.90;;;;;;4938968;29;20005;-69
2023/08/17 09:32:11;;;;;;;6.45;4.20;;;26.70;99.90;;;;;;4939161;29;20171;-69
2023/08/17 09:34:36;;;;;;;6.45;5.30;;;28.70;99.90;;;;;;4922126;29;20047;-69
2023/08/17 09:37:04;;;;;;;6.40;5.50;;;29.30;99.90;;;;;;4939014;29;20032;-69
2023/08/17 09:39:30;;;;;;;6.32;4.90;;;29.40;99.90;;;;;;4940473;29;20337;-69
2023/08/17 09:41:55;;;;;;;6.00;4.72;;;29.90;99.90;;;;;;4939515;29;20046;-69
2023/08/17 09:44:21;;;;;;;6.88;5.60;;;29.20;99.90;;;;;;4937769;29;20024;-69
2023/08/17 09:46:47;;;;;;;8.75;6.72;;;28.60;99.90;;;;;;4939407;29;20099;-69
2023/08/17 09:49:13;;;;;;;8.80;7.90;;;28.00;99.90;;;;;;4922268;29;20024;-70
2023/08/17 09:51:43;;;;;;;10.43;7.00;;;28.20;99.90;;;;;;4938460;29;20028;-69
2023/08/17 09:54:17;;;;;;;10.65;6.90;;;28.80;99.90;;;;;;4921459;29;20061;-71
2023/08/17 09:56:43;;;;;;;8.50;6.95;;;28.90;99.90;;;;;;4938392;29;20039;-70
2023/08/17 09:59:09;;;;;;;10.15;7.97;;;28.80;99.90;;;;;;4938493;29;20036;-70
2023/08/17 10:01:35;;;;;;;8.80;7.90;;;28.80;99.90;;;;;;4938593;29;20035;-70
2023/08/17 10:04:02;;;;;;;10.30;7.60;;;28.90;99.90;;;;;;4938629;29;20462;-70
2023/08/17 10:06:30;;;;;;;9.35;6.93;;;29.60;99.90;;;;;;4921258;29;20020;-70
2023/08/17 10:08:58;;;;;;;8.48;6.00;;;29.90;99.90;;;;;;4938444;29;20020;-68
2023/08/17 10:11:24;;;;;;;6.75;5.75;;;30.70;99.90;;;;;;4920927;29;20034;-68
2023/08/17 10:13:59;;;;;;;8.93;5.63;;;33.10;99.90;;;;;;4937794;29;20032;-68
2023/08/17 10:16:43;;;;;;;9.85;6.25;;;35.20;96.70;;;;;;4937883;29;20046;-69
2023/08/17 10:19:15;;;;;;;7.80;6.50;;;35.20;94.90;;;;;;4920822;29;20063;-69
2023/08/17 10:21:50;;;;;;;8.65;5.78;;;32.90;96.70;;;;;;4937980;29;20138;-68
2023/08/17 10:24:18;;;;;;;6.60;5.30;;;33.50;96.50;;;;;;4936534;29;20099;-67
2023/08/17 10:26:45;;;;;;;8.35;6.20;;;34.90;95.30;;;;;;4937306;29;20032;-67
2023/08/17 10:29:10;;;;;;;7.40;5.88;;;35.60;94.30;;;;;;4937896;29;20035;-67
2023/08/17 10:31:38;;;;;;;10.90;5.82;;;36.10;94.30;;;;;;4937593;29;20036;-67
2023/08/17 10:34:04;;;;;;;9.35;6.18;;;36.60;93.10;;;;;;4920354;29;20115;-67
2023/08/17 10:36:32;;;;;;;6.32;5.53;;;35.80;92.50;;;;;;4937467;29;20087;-67
2023/08/17 10:39:28;;;;;;;7.15;5.30;;;34.60;93.30;;;;;;4937667;29;20422;-69
2023/08/17 10:41:55;;;;;;;7.80;6.25;;;33.20;95.00;;;;;;4920307;29;20396;-68
2023/08/17 10:44:46;;;;;;;6.28;5.55;;;32.50;95.70;;;;;;4938337;29;20568;-67
2023/08/17 10:47:20;;;;;;;6.53;5.85;;;31.60;96.60;;;;;;4920655;29;20030;-68
2023/08/17 10:49:45;;;;;;;8.00;7.10;;;31.70;97.20;;;;;;4921512;29;20084;-69
2023/08/17 10:52:11;;;;;;;7.65;5.32;;;33.20;96.50;;;;;;4937914;29;20039;-68
2023/08/17 10:54:38;;;;;;;6.10;5.45;;;35.10;94.30;;;;;;4936931;29;20030;-68
2023/08/17 10:57:32;;;;;;;7.05;5.65;;;36.00;93.30;;;;;;4937477;29;20028;-68
2023/08/17 11:00:24;;;;;;;11.88;6.55;;;35.70;92.40;;;;;;4936936;29;20031;-67
2023/08/17 11:03:00;;;;;;;8.30;5.95;;;35.00;93.20;;;;;;4937212;29;20023;-68
2023/08/17 11:05:43;;;;;;;7.38;6.38;;;33.90;93.80;;;;;;4937326;29;20030;-68
2023/08/17 11:08:32;;;;;;;8.07;6.50;;;32.30;95.40;;;;;;4935688;29;20028;-68
2023/08/17 11:11:12;;;;;;;13.45;7.63;;;31.40;96.70;;;;;;4937185;29;20028;-68
2023/08/17 11:13:42;;;;;;;12.27;7.40;;;31.20;97.00;;;;;;4936826;29;20083;-68
2023/08/17 11:16:09;;;;;;;9.38;7.38;;;30.90;97.60;;;;;;4937377;29;20425;-68
2023/08/17 11:18:36;;;;;;;9.02;7.75;;;30.70;97.70;;;;;;4938162;29;20138;-69
2023/08/17 11:21:09;;;;;;;11.15;7.35;;;30.40;98.30;;;;;;4938648;29;20496;-69
2023/08/17 11:23:37;;;;;;;9.55;7.75;;;30.00;98.60;;;;;;4935448;29;20176;-68
2023/08/17 11:26:04;;;;;;;16.38;8.05;;;29.60;99.30;;;;;;4937221;29;20508;-67
2023/08/17 11:28:36;;;;;;;8.23;7.32;;;29.50;99.80;;;;;;4919310;29;20032;-68
2023/08/17 11:31:31;;;;;;;14.52;7.68;;;29.30;99.90;;;;;;4936969;29;20024;-71
2023/08/17 11:33:58;;;;;;;11.63;7.97;;;29.20;99.90;;;;;;4859607;29;20128;-68
2023/08/17 11:36:24;;;;;;;9.23;8.18;;;29.20;99.90;;;;;;4859286;29;20045;-66
2023/08/17 11:38:50;;;;;;;8.35;7.45;;;29.00;99.90;;;;;;4859815;29;20128;-67
2023/08/17 11:41:15;;;;;;;10.32;7.88;;;28.80;99.90;;;;;;4843640;29;20166;-68
2023/08/17 11:43:43;;;;;;;11.75;8.50;;;28.40;99.90;;;;;;4859309;29;20068;-68
2023/08/17 11:46:09;;;;;;;13.75;8.80;;;28.20;99.90;;;;;;4843886;29;20059;-68
2023/08/17 11:48:34;;;;;;;11.77;8.65;;;27.80;99.90;;;;;;4859264;29;20033;-68
2023/08/17 11:51:00;;;;;;;11.23;8.95;;;27.80;99.90;;;;;;4859916;29;20112;-67
2023/08/17 11:53:34;;;;;;;11.73;9.40;;;27.80;99.90;;;;;;4859153;29;20041;-68
2023/08/17 11:55:59;;;;;;;11.57;9.95;;;27.80;99.90;;;;;;4859598;29;20101;-69
2023/08/17 11:58:42;;;;;;;13.73;9.55;;;27.70;99.90;;;;;;4860024;29;20045;-69
2023/08/17 12:01:15;;;;;;;13.20;10.05;;;27.50;99.90;;;;;;4844343;29;20034;-68
2023/08/17 12:03:41;;;;;;;13.88;10.68;;;27.30;99.90;;;;;;4869086;29;20064;-67
2023/08/17 12:06:12;;;;;;;15.23;11.23;;;27.10;99.90;;;;;;4900420;29;20548;-68
2023/08/17 12:08:38;;;;;;;16.15;10.07;;;27.00;99.90;;;;;;4917816;29;20198;-67
2023/08/17 12:11:04;;;;;;;11.85;10.20;;;26.90;99.90;;;;;;4916294;29;20028;-68
2023/08/17 12:13:36;;;;;;;11.07;9.88;;;26.90;99.90;;;;;;4917311;29;20095;-68
2023/08/17 12:16:03;;;;;;;14.02;10.32;;;26.70;99.90;;;;;;4917391;29;20039;-68
2023/08/17 12:18:32;;;;;;;15.20;9.45;;;26.80;99.90;;;;;;4917413;29;20043;-69
2023/08/17 12:21:00;;;;;;;11.93;9.43;;;27.00;99.90;;;;;;4917162;29;20056;-68
2023/08/17 12:23:28;;;;;;;13.27;9.50;;;27.40;99.90;;;;;;4917346;29;20469;-69
2023/08/17 12:25:55;;;;;;;10.98;9.25;;;27.80;99.90;;;;;;4916241;29;20056;-69
2023/08/17 12:28:22;;;;;;;15.13;9.65;;;27.90;99.90;;;;;;4930454;29;20024;-69
2023/08/17 12:31:03;;;;;;;11.18;8.85;;;28.10;99.90;;;;;;4937052;29;20521;-69
2023/08/17 12:33:29;;;;;;;10.93;9.75;;;27.90;99.90;;;;;;4935238;29;20382;-68
2023/08/17 12:35:55;;;;;;;12.60;9.98;;;28.10;99.90;;;;;;4935066;29;20031;-69
2023/08/17 12:38:23;;;;;;;13.30;9.65;;;28.00;99.90;;;;;;4936174;29;20107;-68
2023/08/17 12:40:49;;;;;;;14.38;9.48;;;27.90;99.90;;;;;;4936671;29;20072;-68
2023/08/17 12:43:15;;;;;;;10.98;9.63;;;28.10;99.90;;;;;;4936671;29;20051;-68
2023/08/17 12:45:40;;;;;;;11.88;9.68;;;28.10;99.90;;;;;;4936442;29;20071;-68
2023/08/17 12:48:06;;;;;;;12.10;9.70;;;28.20;99.90;;;;;;4936057;29;20099;-68
2023/08/17 12:50:37;;;;;;;12.88;10.52;;;28.20;99.90;;;;;;4919218;29;20114;-68
2023/08/17 12:53:03;;;;;;;12.85;10.82;;;28.20;99.90;;;;;;4936875;29;20028;-68
2023/08/17 12:55:31;;;;;;;12.05;10.05;;;28.00;99.90;;;;;;4936571;29;20035;-68
2023/08/17 12:57:56;;;;;;;12.82;10.60;;;28.10;99.90;;;;;;4935300;29;20441;-69
2023/08/17 13:00:22;;;;;;;13.85;10.80;;;28.20;99.90;;;;;;4936425;29;20067;-68
2023/08/17 13:02:51;;;;;;;12.63;10.77;;;28.30;99.90;;;;;;4939572;29;20031;-68
2023/08/17 13:05:17;;;;;;;13.65;9.95;;;28.40;99.90;;;;;;4938289;29;20024;-67
2023/08/17 13:07:42;;;;;;;13.98;9.88;;;28.40;99.90;;;;;;4939380;29;20381;-67
2023/08/17 13:10:08;;;;;;;14.48;10.07;;;28.30;99.90;;;;;;4939300;29;20039;-68
2023/08/17 13:12:42;;;;;;;12.23;10.15;;;28.30;99.90;;;;;;4937791;29;20110;-68
2023/08/17 13:15:08;;;;;;;13.07;10.52;;;28.10;99.90;;;;;;4935906;29;20511;-68
2023/08/17 13:17:34;;;;;;;13.82;9.70;;;28.00;99.90;;;;;;4933047;29;20105;-68
2023/08/17 13:20:03;;;;;;;11.15;9.75;;;28.00;99.90;;;;;;4932136;29;20043;-67
2023/08/17 13:22:32;;;;;;;10.85;9.57;;;28.10;99.90;;;;;;4930952;29;20048;-67
2023/08/17 13:25:02;;;;;;;11.68;9.40;;;28.20;99.90;;;;;;4936003;29;20055;-67
2023/08/17 13:27:30;;;;;;;13.48;8.80;;;28.30;99.90;;;;;;4934476;29;20023;-68
2023/08/17 13:30:01;;;;;;;12.23;9.07;;;28.50;99.90;;;;;;4923010;29;20468;-67
2023/08/17 13:32:27;;;;;;;13.25;8.98;;;28.60;99.90;;;;;;4937511;29;20050;-67
2023/08/17 13:34:59;;;;;;;12.00;8.73;;;28.60;99.90;;;;;;4938305;29;20377;-67
2023/08/17 13:37:24;;;;;;;9.80;7.85;;;28.60;99.90;;;;;;4967999;23;20506;-66
2023/08/17 13:39:50;;;;;;;14.55;9.35;;;28.70;99.90;;;;;;4995614;28;20037;-65
2023/08/17 13:42:16;;;;;;;8.55;7.68;;;28.60;99.90;;;;;;4996212;28;20466;-66
2023/08/17 13:44:41;;;;;;;11.00;8.70;;;28.60;99.90;;;;;;4996488;28;20443;-65
2023/08/17 13:47:07;;;;;;;11.10;7.80;;;28.60;99.90;;;;;;4991080;28;20431;-65
2023/08/17 13:49:32;;;;;;;8.80;7.45;;;28.60;99.90;;;;;;4976545;28;20050;-66
2023/08/17 13:51:58;;;;;;;10.85;8.27;;;28.50;99.90;;;;;;4975356;28;20097;-65
2023/08/17 13:54:24;;;;;;;8.20;7.18;;;28.60;99.90;;;;;;4976088;28;20026;-66
2023/08/17 13:56:50;;;;;;;9.68;7.28;;;28.50;99.90;;;;;;4975338;28;20026;-65
2023/08/17 13:59:16;;;;;;;8.48;7.57;;;28.40;99.90;;;;;;4977331;28;20025;-67
2023/08/17 14:01:41;;;;;;;10.35;8.13;;;28.50;99.90;;;;;;4976551;28;20031;-66
2023/08/17 14:04:11;;;;;;;8.60;7.65;;;28.60;99.90;;;;;;4976762;28;20050;-66
2023/08/17 14:06:38;;;;;;;10.60;7.68;;;28.50;99.90;;;;;;4976612;28;20018;-66
2023/08/17 14:09:04;;;;;;;8.13;7.30;;;28.40;99.90;;;;;;4976495;28;20030;-65
2023/08/17 14:11:29;;;;;;;12.65;7.47;;;28.40;99.90;;;;;;4975239;28;20031;-66
2023/08/17 14:13:55;;;;;;;7.95;7.18;;;28.50;99.90;;;;;;4975489;28;20073;-65
2023/08/17 14:16:21;;;;;;;9.48;7.82;;;28.50;99.90;;;;;;4976903;28;20047;-64
2023/08/17 14:18:46;;;;;;;11.18;7.72;;;28.60;99.90;;;;;;4976552;28;20085;-64
2023/08/17 14:21:12;;;;;;;8.50;7.28;;;28.60;99.90;;;;;;4976759;28;20035;-65
2023/08/17 14:23:38;;;;;;;8.50;7.70;;;28.60;99.90;;;;;;4976468;28;20030;-65
2023/08/17 14:26:04;;;;;;;10.70;8.43;;;28.60;99.90;;;;;;4976293;28;20026;-65
2023/08/17 14:28:30;;;;;;;9.88;8.05;;;28.70;99.90;;;;;;4974876;28;20181;-65
2023/08/17 14:30:55;;;;;;;12.23;8.35;;;28.90;99.90;;;;;;4976304;28;20042;-65
2023/08/17 14:33:21;;;;;;;9.23;7.93;;;29.10;99.90;;;;;;4981425;28;20054;-65
2023/08/17 14:35:47;;;;;;;8.48;7.03;;;29.10;99.90;;;;;;4980483;28;20033;-66
2023/08/17 14:38:15;;;;;;;11.30;7.00;;;29.10;99.90;;;;;;4975144;28;20384;-64
2023/08/17 14:40:45;;;;;;;7.97;7.03;;;29.10;99.90;;;;;;4976249;28;20027;-64
2023/08/17 14:43:13;;;;;;;7.60;6.60;;;29.00;99.90;;;;;;4979842;28;20023;-65
2023/08/17 14:45:42;;;;;;;8.27;7.05;;;28.70;99.90;;;;;;4977647;28;20023;-66
2023/08/17 14:48:08;;;;;;;7.40;6.57;;;28.60;99.90;;;;;;4976932;28;20396;-64
2023/08/17 14:50:38;;;;;;;8.25;6.93;;;28.60;99.90;;;;;;4978716;28;20023;-65
2023/08/17 14:53:07;;;;;;;7.38;6.25;;;28.50;99.90;;;;;;4977629;28;20495;-67
2023/08/17 14:55:34;;;;;;;8.98;6.53;;;28.50;99.90;;;;;;4977166;28;20027;-67
2023/08/17 14:58:00;;;;;;;8.68;6.60;;;28.40;99.90;;;;;;4975053;28;20046;-64
2023/08/17 15:00:26;;;;;;;8.02;7.22;;;28.50;99.90;;;;;;4976108;28;20023;-64
2023/08/17 15:02:55;;;;;;;8.27;6.57;;;28.40;99.90;;;;;;4975860;28;20030;-64
2023/08/17 15:05:21;;;;;;;9.00;7.03;;;28.40;99.90;;;;;;4976143;28;20077;-64
2023/08/17 15:07:47;;;;;;;8.65;6.38;;;28.40;99.90;;;;;;4975450;28;20018;-65
2023/08/17 15:10:12;;;;;;;8.13;6.22;;;28.40;99.90;;;;;;4980857;28;20023;-66
2023/08/17 15:12:38;;;;;;;8.40;6.63;;;28.60;99.90;;;;;;4962096;28;20030;-65
2023/08/17 15:15:04;;;;;;;9.00;6.63;;;28.60;99.90;;;;;;4976564;28;20050;-64
2023/08/17 15:17:30;;;;;;;9.32;7.05;;;28.60;99.90;;;;;;4958594;28;20027;-64
2023/08/17 15:19:55;;;;;;;13.13;7.32;;;28.50;99.90;;;;;;4958050;28;20102;-64
2023/08/17 15:22:21;;;;;;;7.75;6.95;;;28.50;99.90;;;;;;4956969;28;20067;-64
2023/08/17 15:24:46;;;;;;;8.98;6.95;;;28.40;99.90;;;;;;4955345;28;20023;-65
2023/08/17 15:27:12;;;;;;;7.90;7.15;;;28.40;99.90;;;;;;4956009;28;20087;-64
2023/08/17 15:29:39;;;;;;;11.20;7.75;;;28.30;99.90;;;;;;4954499;29;20031;-64
2023/08/17 15:32:05;;;;;;;8.45;7.35;;;28.30;99.90;;;;;;4956185;28;20027;-63
2023/08/17 15:34:31;;;;;;;9.07;7.30;;;28.40;99.90;;;;;;4956243;28;20038;-64
2023/08/17 15:36:56;;;;;;;11.02;7.88;;;28.40;99.90;;;;;;4955513;28;20167;-64
2023/08/17 15:39:22;;;;;;;9.07;7.18;;;28.40;99.90;;;;;;4962578;28;20491;-65
2023/08/17 15:41:47;;;;;;;15.80;13.70;;;28.40;99.90;;;;;;4973470;28;20062;-66
2023/08/17 15:44:13;;;;;;;10.80;8.48;;;28.40;99.90;;;;;;4974989;28;20027;-65
2023/08/17 15:46:39;;;;;;;9.32;7.55;;;28.40;99.90;;;;;;4975980;28;20023;-65
2023/08/17 15:49:05;;;;;;;8.90;6.90;;;28.20;99.90;;;;;;4975308;28;20026;-63
2023/08/17 15:51:31;;;;;;;7.28;6.55;;;28.10;99.90;;;;;;4973234;28;20037;-65
2023/08/17 15:53:57;;;;;;;8.02;6.88;;;28.10;99.90;;;;;;4970387;28;20095;-64
2023/08/17 15:56:22;;;;;;;8.98;6.22;;;28.10;99.90;;;;;;4974128;28;20077;-63
2023/08/17 15:58:48;;;;;;;8.35;6.45;;;28.20;99.90;;;;;;4974511;28;20085;-63
2023/08/17 16:01:14;;;;;;;7.90;6.47;;;28.40;99.90;;;;;;4975039;28;20459;-63
2023/08/17 16:03:40;;;;;;;8.02;6.70;;;28.50;99.90;;;;;;4974832;28;20029;-64
2023/08/17 16:06:06;;;;;;;8.02;6.20;;;28.50;99.90;;;;;;4975426;28;20098;-62
2023/08/17 16:08:31;;;;;;;7.18;6.47;;;28.50;99.90;;;;;;4974576;28;20462;-65
2023/08/17 16:10:57;;;;;;;7.82;7.03;;;28.50;99.90;;;;;;4973193;28;20027;-65
2023/08/17 16:13:22;;;;;;;10.90;6.70;;;28.60;99.90;;;;;;4974886;28;20085;-65
2023/08/17 16:15:48;;;;;;;8.38;7.00;;;28.50;99.90;;;;;;4974337;28;20026;-66
2023/08/17 16:18:13;;;;;;;9.77;7.53;;;28.40;99.90;;;;;;4972811;28;20023;-67
2023/08/17 16:20:39;;;;;;;9.93;7.07;;;28.40;99.90;;;;;;4959778;28;20019;-66
2023/08/17 16:23:04;;;;;;;8.45;7.63;;;28.30;99.90;;;;;;4953692;29;20166;-65
2023/08/17 16:25:32;;;;;;;8.02;7.20;;;28.20;99.90;;;;;;4971949;28;20018;-67
2023/08/17 16:27:58;;;;;;;9.73;6.95;;;28.10;99.90;;;;;;4993905;28;20027;-66
2023/08/17 16:30:24;;;;;;;8.95;7.22;;;28.00;99.90;;;;;;4993962;28;20447;-65
2023/08/17 16:32:49;;;;;;;8.43;7.22;;;28.00;99.90;;;;;;4993789;28;20093;-64
2023/08/17 16:35:15;;;;;;;8.20;7.32;;;27.90;99.90;;;;;;4994663;28;20065;-66
2023/08/17 16:37:40;;;;;;;8.88;7.68;;;27.90;99.90;;;;;;4996971;28;20057;-66
2023/08/17 16:40:07;;;;;;;10.90;8.95;;;27.90;99.90;;;;;;4997468;28;20037;-66
2023/08/17 16:42:32;;;;;;;8.65;7.75;;;27.90;99.90;;;;;;4997952;28;20042;-65
2023/08/17 16:44:58;;;;;;;9.02;8.13;;;27.80;99.90;;;;;;4996313;28;20026;-64
2023/08/17 16:47:26;;;;;;;8.55;7.45;;;27.80;99.90;;;;;;4997686;28;20050;-63
2023/08/17 16:49:53;;;;;;;8.85;6.93;;;27.70;99.90;;;;;;4997728;28;20101;-66
2023/08/17 16:52:19;;;;;;;8.25;7.15;;;27.70;99.90;;;;;;4997529;28;20030;-67
2023/08/17 16:54:44;;;;;;;10.57;7.80;;;27.60;99.90;;;;;;4997328;28;20023;-66
2023/08/17 16:57:10;;;;;;;8.23;7.43;;;27.60;99.90;;;;;;4997601;28;20484;-68
2023/08/17 16:59:36;;;;;;;8.13;7.25;;;27.50;99.90;;;;;;4997631;28;20158;-67
2023/08/17 17:02:02;;;;;;;11.13;7.38;;;27.40;99.90;;;;;;4997290;28;20026;-66
2023/08/17 17:04:28;;;;;;;8.43;6.90;;;27.40;99.90;;;;;;4996248;28;20096;-66
2023/08/17 17:06:53;;;;;;;9.85;7.47;;;27.40;99.90;;;;;;4997225;28;20050;-67
2023/08/17 17:09:20;;;;;;;8.68;7.25;;;27.40;99.90;;;;;;4982732;28;20015;-66
2023/08/17 17:11:45;;;;;;;8.40;7.60;;;27.40;99.90;;;;;;4976462;28;20037;-66
2023/08/17 17:14:11;;;;;;;8.45;6.80;;;27.40;99.90;;;;;;4976500;28;20023;-67
2023/08/17 17:16:36;;;;;;;8.55;7.10;;;27.40;99.90;;;;;;4977560;28;20037;-66
2023/08/17 17:19:02;;;;;;;9.48;6.85;;;27.30;99.90;;;;;;4977691;28;20066;-66
2023/08/17 17:21:28;;;;;;;8.98;6.80;;;27.30;99.90;;;;;;4977437;28;20113;-65
2023/08/17 17:23:53;;;;;;;9.30;6.68;;;27.30;99.90;;;;;;4977475;28;20023;-66
2023/08/17 17:26:20;;;;;;;8.35;6.78;;;27.30;99.90;;;;;;4977920;28;20098;-66
2023/08/17 17:28:46;;;;;;;8.18;7.00;;;27.20;99.90;;;;;;4977475;28;20022;-67
2023/08/17 17:31:12;;;;;;;7.80;7.00;;;27.20;99.90;;;;;;4977195;28;20030;-67
2023/08/17 17:33:38;;;;;;;9.25;7.72;;;27.10;99.90;;;;;;4977439;28;20027;-66
2023/08/17 17:36:04;;;;;;;8.52;7.15;;;27.10;99.90;;;;;;4977324;28;20030;-68
2023/08/17 17:38:29;;;;;;;9.48;7.15;;;27.10;99.90;;;;;;4977622;28;20097;-66
2023/08/17 17:40:57;;;;;;;12.40;7.03;;;27.10;99.90;;;;;;4977223;28;20479;-72
2023/08/17 17:43:23;;;;;;;8.60;6.90;;;27.00;99.90;;;;;;4977180;28;20046;-66
2023/08/17 17:45:49;;;;;;;12.65;7.25;;;27.00;99.90;;;;;;4976944;28;20030;-67
2023/08/17 17:48:16;;;;;;;9.88;8.02;;;27.00;99.90;;;;;;4978493;28;20025;-68
2023/08/17 17:50:41;;;;;;;8.75;7.05;;;27.00;99.90;;;;;;4977736;28;20503;-67
2023/08/17 17:53:08;;;;;;;10.05;7.90;;;27.00;99.90;;;;;;4977083;28;20035;-67
2023/08/17 17:55:34;;;;;;;9.38;8.30;;;27.00;99.90;;;;;;4972802;28;20476;-67
2023/08/17 17:58:01;;;;;;;12.55;8.35;;;27.00;99.90;;;;;;4987497;28;20093;-64
2023/08/17 18:00:29;;;;;;;10.20;9.20;;;26.90;99.90;;;;;;4975350;28;20049;-64
2023/08/17 18:03:09;;;;;;;11.15;8.23;;;26.90;99.90;;;;;;4975215;28;20022;-64
2023/08/17 18:05:34;;;;;;;11.25;9.05;;;26.80;99.90;;;;;;4976968;28;20125;-63
2023/08/17 18:08:00;;;;;;;14.38;12.88;;;26.70;99.90;;;;;;4976763;28;20471;-64
2023/08/17 18:10:25;;;;;;;12.48;8.38;;;26.70;99.90;;;;;;4976525;28;20101;-61
2023/08/17 18:12:51;;;;;;;11.32;8.10;;;26.60;99.90;;;;;;4976442;28;20027;-62
2023/08/17 18:15:17;;;;;;;9.65;7.65;;;26.60;99.90;;;;;;4977553;28;20027;-63
2023/08/17 18:17:42;;;;;;;11.95;8.05;;;26.60;99.90;;;;;;4975864;28;20038;-63
2023/08/17 18:20:10;;;;;;;8.35;7.53;;;26.60;99.90;;;;;;4974095;28;20026;-63
2023/08/17 18:22:35;;;;;;;9.93;8.05;;;26.50;99.90;;;;;;4976330;28;20027;-64
2023/08/17 18:25:01;;;;;;;10.82;7.55;;;26.40;99.90;;;;;;4976006;28;20484;-62
2023/08/17 18:27:26;;;;;;;12.45;8.10;;;26.40;99.90;;;;;;4967023;28;20532;-64
2023/08/17 18:29:52;;;;;;;8.70;7.85;;;26.40;99.90;;;;;;4956104;29;20031;-64
2023/08/17 18:32:17;;;;;;;9.23;7.82;;;26.40;99.90;;;;;;4957340;29;20027;-64
2023/08/17 18:45:43;;;;;;;10.20;9.10;;;26.20;99.90;;;;;;5755599;23;20396;-67
2023/08/17 18:48:08;;;;;;;10.63;8.32;;;26.20;99.90;;;;;;5409086;23;20129;-67
2023/08/17 18:50:34;;;;;;;12.05;8.48;;;26.20;99.90;;;;;;4936051;29;20027;-66
2023/08/17 18:53:02;;;;;;;10.07;8.32;;;26.20;99.90;;;;;;4939075;29;20034;-66
2023/08/17 18:55:29;;;;;;;11.25;8.30;;;26.20;99.90;;;;;;4938581;29;20540;-65
2023/08/17 18:57:56;;;;;;;11.93;9.52;;;26.10;99.90;;;;;;4919653;29;20024;-67
2023/08/17 19:00:24;;;;;;;12.65;10.75;;;26.10;99.90;;;;;;4938370;29;20432;-68
2023/08/17 19:02:50;;;;;;;13.80;10.38;;;26.00;99.90;;;;;;4937082;29;20035;-66
2023/08/17 19:05:16;;;;;;;;;;;25.90;99.90;;;;;;4938209;29;20020;-67
2023/08/17 19:07:42;;;;;;;11.38;9.88;;;25.90;99.90;;;;;;4937411;29;19914;-72
2023/08/17 19:10:08;;;;;;;9.75;8.80;;;26.00;99.90;;;;;;4937961;29;20035;-72
2023/08/17 19:12:34;;;;;;;12.45;8.48;;;25.90;99.90;;;;;;4937848;29;20035;-71
2023/08/17 19:14:59;;;;;;;11.07;9.25;;;25.90;99.90;;;;;;4937540;29;20034;-72
2023/08/17 19:17:25;;;;;;;;;;;25.90;99.90;;;;;;4936597;29;20106;-72
2023/08/17 19:19:50;;;;;;;12.35;8.35;;;25.90;99.90;;;;;;4939722;29;19930;-73
2023/08/17 19:22:18;;;;;;;10.55;8.45;;;26.00;99.90;;;;;;4957378;29;20110;-72
2023/08/17 19:24:43;;;;;;;11.20;8.48;;;25.90;99.90;;;;;;4956782;29;20019;-72
2023/08/17 19:27:09;;;;;;;;;;;25.80;99.90;;;;;;4939397;28;20024;-72
2023/08/17 19:29:34;;;;;;;8.77;7.90;;;25.70;99.90;;;;;;4956898;29;19989;-72
2023/08/17 19:32:00;;;;;;;10.63;8.60;;;25.70;99.90;;;;;;4956098;29;20027;-70
2023/08/17 19:34:25;;;;;;;;;;;25.60;99.90;;;;;;4956472;29;20030;-72
2023/08/17 19:36:51;;;;;;;10.50;8.57;;;25.60;99.90;;;;;;4956227;29;19954;-72
2023/08/17 19:39:16;;;;;;;12.00;8.15;;;25.60;99.90;;;;;;4955813;28;20034;-71
2023/08/17 19:41:44;;;;;;;;;;;25.50;99.90;;;;;;4956903;29;20392;-71
2023/08/17 19:44:10;;;;;;;11.13;8.27;;;25.50;99.90;;;;;;4955962;29;19960;-71
2023/08/17 19:46:35;;;;;;;;;;;25.40;99.90;;;;;;4956171;29;20047;-72
2023/08/17 19:49:01;;;;;;;10.40;8.90;;;25.40;99.90;;;;;;4955336;28;20379;-71
2023/08/17 19:51:26;;;;;;;15.13;9.00;;;25.30;99.90;;;;;;4938463;29;20081;-71
2023/08/17 19:53:52;;;;;;;;;;;25.20;99.90;;;;;;4956547;29;20481;-71
2023/08/17 19:56:17;;;;;;;12.07;9.43;;;25.10;99.90;;;;;;4956034;29;19907;-71
2023/08/17 19:58:44;;;;;;;9.15;8.00;;;25.10;99.90;;;;;;4955563;28;20540;-71
2023/08/17 20:01:11;;;;;;;13.73;9.65;;;25.10;99.90;;;;;;4956107;29;20038;-71
2023/08/17 20:03:37;;;;;;;11.60;8.45;;;25.00;99.90;;;;;;4955513;29;20026;-72
2023/08/17 20:06:02;;;;;;;;;;;25.00;99.90;;;;;;4956278;29;20023;-72
2023/08/17 20:08:28;;;;;;;11.00;8.57;;;25.00;99.90;;;;;;4938879;29;20403;-71
2023/08/17 20:10:54;;;;;;;8.98;8.07;;;25.00;99.90;;;;;;4955215;28;20495;-71
2023/08/17 20:13:19;;;;;;;;;;;24.90;99.90;;;;;;4955784;29;20023;-71
2023/08/17 20:15:45;;;;;;;9.60;8.45;;;24.80;99.90;;;;;;4955335;29;19907;-71
2023/08/17 20:18:13;;;;;;;;;;;24.70;99.90;;;;;;4938947;28;20033;-71
2023/08/17 20:20:48;;;;;;;;;;;24.70;99.90;;;;;;4950072;29;19927;-70
2023/08/17 20:23:13;;;;;;;9.90;8.70;;;24.60;99.90;;;;;;4947805;29;19915;-71